Time;durP1;ratioP1;P1;durP2;ratioP2;P2;SDS_P1;SDS_P2;PMS_P1;PMS_P2;Temp;Humidity;BMP_temperature;BMP_pressure;BME280_temperature;BME280_humidity;BME280_pressure;Samples;Min_cycle;Max_cycle;Signal;HPM_P1;HPM_P2
2023/04/26 00:01:38;;;;;;;12.33;4.80;;;;;4.60;96164.00;;;;8276810;28;20214;-80
2023/04/26 00:05:42;;;;;;;10.77;4.73;;;;;4.50;96167.00;;;;8272502;28;20212;-78
2023/04/26 00:09:47;;;;;;;13.10;5.47;;;;;4.40;96164.00;;;;8271653;28;20870;-78
2023/04/26 00:13:50;;;;;;;13.37;5.23;;;;;4.30;96163.00;;;;8271481;28;20241;-79
2023/04/26 00:17:57;;;;;;;8.53;5.10;;;;;4.20;96169.00;;;;8247838;28;20212;-80
2023/04/26 00:22:01;;;;;;;12.30;4.83;;;;;4.10;96169.00;;;;8285809;28;20297;-80
2023/04/26 00:26:05;;;;;;;8.93;4.73;;;;;4.00;96174.00;;;;8290049;28;20230;-80
2023/04/26 00:30:10;;;;;;;10.33;5.20;;;;;4.00;96152.00;;;;8288642;28;20202;-79
2023/04/26 00:34:15;;;;;;;9.60;5.03;;;;;3.80;96145.00;;;;8288628;28;20225;-81
2023/04/26 00:38:20;;;;;;;10.63;5.20;;;;;3.80;96157.00;;;;8270529;28;20206;-81
2023/04/26 00:42:30;;;;;;;13.73;5.27;;;;;3.60;96164.00;;;;8289563;28;20196;-82
2023/04/26 00:46:36;;;;;;;10.13;5.67;;;;;3.50;96162.00;;;;8289237;28;20200;-77
2023/04/26 00:50:43;;;;;;;14.47;5.87;;;;;3.40;96161.00;;;;8289844;28;20258;-77
2023/04/26 00:54:47;;;;;;;14.90;5.20;;;;;3.40;96158.00;;;;8287326;28;20223;-77
2023/04/26 00:58:50;;;;;;;12.73;5.63;;;;;3.40;96158.00;;;;8287983;28;20200;-79
2023/04/26 01:02:56;;;;;;;10.67;5.63;;;;;3.40;96159.00;;;;8286474;28;20258;-76
2023/04/26 01:07:02;;;;;;;14.77;6.10;;;;;3.30;96157.00;;;;8287940;28;20245;-75
2023/04/26 01:11:05;;;;;;;14.70;5.60;;;;;3.20;96172.00;;;;8288871;28;20642;-75
2023/04/26 01:15:09;;;;;;;9.30;5.47;;;;;3.20;96170.00;;;;8286999;28;20774;-75
2023/04/26 01:19:13;;;;;;;13.97;5.97;;;;;3.10;96167.00;;;;8269869;28;20200;-74
2023/04/26 01:23:18;;;;;;;11.27;6.13;;;;;3.10;96183.00;;;;8286039;28;20245;-76
2023/04/26 01:27:27;;;;;;;13.77;5.70;;;;;3.00;96165.00;;;;8270341;28;20204;-75
2023/04/26 01:31:30;;;;;;;11.17;5.37;;;;;2.80;96168.00;;;;8286271;28;20633;-75
2023/04/26 01:35:33;;;;;;;12.87;5.70;;;;;2.70;96166.00;;;;8284942;28;20754;-76
2023/04/26 01:39:57;;;;;;;12.40;5.73;;;;;2.70;96156.00;;;;8287596;28;20228;-75
2023/04/26 01:44:03;;;;;;;14.63;6.27;;;;;2.70;96166.00;;;;8287335;28;20263;-74
2023/04/26 01:48:09;;;;;;;12.77;5.87;;;;;2.70;96169.00;;;;8288303;28;20560;-74
2023/04/26 01:52:12;;;;;;;13.70;6.27;;;;;2.70;96173.00;;;;8287599;28;20944;-74
2023/04/26 01:56:19;;;;;;;18.47;6.10;;;;;2.70;96169.00;;;;8284050;28;20709;-74
2023/04/26 02:00:24;;;;;;;13.30;5.53;;;;;2.70;96173.00;;;;8285810;28;20705;-74
2023/04/26 02:04:29;;;;;;;11.60;6.00;;;;;2.70;96169.00;;;;8283112;28;20235;-75
2023/04/26 02:08:32;;;;;;;18.33;6.20;;;;;2.60;96178.00;;;;8287025;28;20264;-74
2023/04/26 02:12:40;;;;;;;12.10;6.00;;;;;2.60;96183.00;;;;8288075;28;20608;-74
2023/04/26 02:16:44;;;;;;;13.03;6.10;;;;;2.60;96171.00;;;;8296123;28;20232;-72
2023/04/26 02:20:47;;;;;;;14.30;6.50;;;;;2.60;96179.00;;;;8279364;28;20237;-76
2023/04/26 02:24:50;;;;;;;16.90;6.90;;;;;2.60;96181.00;;;;8295816;28;20256;-77
2023/04/26 02:28:55;;;;;;;17.13;6.47;;;;;2.50;96182.00;;;;8297277;28;20973;-75
2023/04/26 02:32:58;;;;;;;11.77;5.60;;;;;2.50;96180.00;;;;8297701;28;20200;-77
2023/04/26 02:37:01;;;;;;;13.93;6.13;;;;;2.40;96175.00;;;;8297478;28;20321;-76
2023/04/26 02:41:05;;;;;;;14.13;6.37;;;;;2.30;96173.00;;;;8297812;28;20198;-77
2023/04/26 02:45:13;;;;;;;21.33;6.50;;;;;2.30;96178.00;;;;8297433;28;20670;-77
2023/04/26 02:49:18;;;;;;;13.73;6.30;;;;;2.20;96162.00;;;;8296505;28;20187;-76
2023/04/26 02:53:23;;;;;;;14.43;5.80;;;;;2.20;96174.00;;;;8296604;28;20226;-76
2023/04/26 02:57:28;;;;;;;17.03;5.97;;;;;2.10;96172.00;;;;8298572;28;20633;-77
2023/04/26 03:01:32;;;;;;;16.10;6.37;;;;;2.00;96169.00;;;;8328857;22;20246;-78
2023/04/26 03:05:35;;;;;;;14.30;6.40;;;;;2.00;96169.00;;;;8293127;28;20215;-76
2023/04/26 03:09:41;;;;;;;17.90;6.67;;;;;2.10;96179.00;;;;8295646;28;20208;-77
2023/04/26 03:13:46;;;;;;;18.47;5.97;;;;;2.20;96197.00;;;;8299537;28;20236;-77
2023/04/26 03:17:51;;;;;;;18.67;6.43;;;;;2.30;96188.00;;;;8299958;28;20207;-75
2023/04/26 03:21:57;;;;;;;19.13;6.70;;;;;2.50;96178.00;;;;8295796;28;20650;-78
2023/04/26 03:26:03;;;;;;;21.03;7.27;;;;;2.70;96186.00;;;;8300376;28;20202;-78
2023/04/26 03:30:07;;;;;;;25.07;7.20;;;;;2.80;96182.00;;;;8296929;28;20205;-77
2023/04/26 03:34:12;;;;;;;23.03;7.90;;;;;3.00;96186.00;;;;8293759;28;20731;-78
2023/04/26 03:38:17;;;;;;;22.37;8.13;;;;;3.10;96180.00;;;;8300010;28;20291;-78
2023/04/26 03:42:21;;;;;;;18.27;7.17;;;;;3.20;96189.00;;;;8304044;28;20196;-77
2023/04/26 03:46:26;;;;;;;16.73;7.17;;;;;3.10;96204.00;;;;8297622;28;20195;-77
2023/04/26 03:50:31;;;;;;;17.17;7.20;;;;;3.10;96200.00;;;;8303675;28;20195;-79
2023/04/26 03:54:34;;;;;;;16.77;6.47;;;;;3.00;96201.00;;;;8286340;28;20244;-77
2023/04/26 03:58:38;;;;;;;18.80;6.33;;;;;2.90;96205.00;;;;8289342;28;20808;-77
2023/04/26 04:02:43;;;;;;;11.77;6.37;;;;;2.80;96202.00;;;;8291237;28;20238;-78
2023/04/26 04:06:48;;;;;;;15.83;6.90;;;;;2.80;96207.00;;;;8303642;28;20289;-76
2023/04/26 04:10:51;;;;;;;13.17;7.10;;;;;2.80;96207.00;;;;8323286;28;20211;-77
2023/04/26 04:14:54;;;;;;;13.70;5.97;;;;;2.90;96211.00;;;;8317649;28;20230;-80
2023/04/26 04:18:57;;;;;;;16.87;6.20;;;;;2.80;96212.00;;;;8320305;28;20207;-78
2023/04/26 04:23:06;;;;;;;20.50;6.60;;;;;2.70;96218.00;;;;8319371;28;20259;-77
2023/04/26 04:27:10;;;;;;;13.33;5.93;;;;;2.70;96233.00;;;;8318744;28;20585;-78
2023/04/26 04:31:13;;;;;;;10.80;6.03;;;;;2.70;96227.00;;;;8307190;28;20194;-78
2023/04/26 04:35:17;;;;;;;12.43;5.53;;;;;2.70;96239.00;;;;8321355;28;20544;-77
2023/04/26 04:39:37;;;;;;;10.67;5.67;;;;;2.80;96235.00;;;;8321421;28;20550;-77
2023/04/26 04:43:41;;;;;;;15.60;6.03;;;;;2.90;96236.00;;;;8317758;28;20255;-79
2023/04/26 04:47:47;;;;;;;14.90;6.90;;;;;3.10;96241.00;;;;8315773;28;20293;-79
2023/04/26 04:51:53;;;;;;;13.67;6.57;;;;;3.30;96248.00;;;;8311027;28;20284;-78
2023/04/26 04:55:57;;;;;;;20.23;6.43;;;;;3.50;96252.00;;;;8308961;28;20776;-79
2023/04/26 05:00:06;;;;;;;14.93;6.60;;;;;3.70;96249.00;;;;8311172;28;20199;-79
2023/04/26 05:04:09;;;;;;;21.47;7.53;;;;;4.00;96254.00;;;;8309784;28;20225;-78
2023/04/26 05:08:14;;;;;;;22.67;7.73;;;;;4.20;96244.00;;;;8308812;28;20202;-79
2023/04/26 05:12:19;;;;;;;21.37;7.43;;;;;4.40;96253.00;;;;8316026;28;20212;-77
2023/04/26 05:16:31;;;;;;;17.00;8.10;;;;;4.60;96254.00;;;;8312803;28;20227;-78
2023/04/26 05:20:34;;;;;;;17.33;7.07;;;;;4.80;96260.00;;;;8314897;28;20236;-79
2023/04/26 05:24:40;;;;;;;16.27;7.00;;;;;5.10;96256.00;;;;8316024;28;20254;-78
2023/04/26 05:28:46;;;;;;;13.77;7.50;;;;;5.30;96270.00;;;;8319789;28;20236;-78
2023/04/26 05:32:50;;;;;;;17.53;7.70;;;;;5.40;96270.00;;;;8316204;28;20266;-78
2023/04/26 05:36:53;;;;;;;16.67;7.53;;;;;5.50;96267.00;;;;8294385;28;20251;-76
2023/04/26 05:40:59;;;;;;;14.50;7.23;;;;;5.60;96265.00;;;;8319968;28;20277;-78
2023/04/26 05:45:09;;;;;;;15.67;7.43;;;;;5.80;96273.00;;;;8318254;28;20296;-78
2023/04/26 05:49:12;;;;;;;21.90;7.83;;;;;6.20;96262.00;;;;8319809;28;20554;-78
2023/04/26 05:53:15;;;;;;;15.53;7.43;;;;;6.60;96272.00;;;;8319392;28;20197;-77
2023/04/26 05:57:22;;;;;;;17.27;6.60;;;;;6.70;96280.00;;;;8319684;28;20283;-77
2023/04/26 06:01:30;;;;;;;10.27;5.97;;;;;6.80;96283.00;;;;8321009;28;20208;-77
2023/04/26 06:05:36;;;;;;;13.30;6.80;;;;;6.90;96279.00;;;;8316364;28;20204;-77
2023/04/26 06:09:40;;;;;;;13.60;6.50;;;;;7.00;96279.00;;;;8319564;28;20300;-77
2023/04/26 06:13:43;;;;;;;16.57;6.17;;;;;7.30;96291.00;;;;8318201;28;20239;-78
2023/04/26 06:17:50;;;;;;;12.27;5.83;;;;;7.70;96292.00;;;;8320020;28;20274;-77
2023/04/26 06:21:57;;;;;;;13.77;5.60;;;;;7.90;96298.00;;;;8300727;28;20197;-79
2023/04/26 06:26:01;;;;;;;11.60;5.47;;;;;8.00;96299.00;;;;8318175;28;20198;-79
2023/04/26 06:30:06;;;;;;;12.57;6.00;;;;;8.00;96304.00;;;;8319890;28;20212;-77
2023/04/26 06:34:12;;;;;;;8.93;5.10;;;;;8.20;96311.00;;;;8318427;28;20197;-78
2023/04/26 06:38:18;;;;;;;16.33;6.60;;;;;8.30;96320.00;;;;8319568;28;20217;-78
2023/04/26 06:42:23;;;;;;;10.67;5.27;;;;;8.50;96323.00;;;;8316619;28;20194;-79
2023/04/26 06:46:30;;;;;;;9.57;4.83;;;;;8.60;96329.00;;;;8319895;28;20198;-79
2023/04/26 06:50:39;;;;;;;12.67;4.93;;;;;8.60;96328.00;;;;8316547;28;20205;-80
2023/04/26 06:54:42;;;;;;;8.93;4.00;;;;;8.50;96325.00;;;;8317806;28;20202;-78
2023/04/26 06:59:00;;;;;;;14.53;4.53;;;;;8.60;96327.00;;;;8303438;28;20205;-81
2023/04/26 07:03:03;;;;;;;10.30;4.00;;;;;8.70;96331.00;;;;8325717;28;20233;-79
2023/04/26 07:07:08;;;;;;;9.67;3.40;;;;;9.10;96337.00;;;;8306800;28;20550;-80
2023/04/26 07:11:15;;;;;;;7.87;3.73;;;;;9.60;96331.00;;;;8323543;28;20202;-80
2023/04/26 07:15:22;;;;;;;3.83;3.27;;;;;10.20;96330.00;;;;8319692;28;20252;-79
2023/04/26 07:19:25;;;;;;;4.50;3.20;;;;;10.90;96339.00;;;;8321495;28;20202;-80
2023/04/26 07:23:33;;;;;;;5.43;3.50;;;;;11.80;96339.00;;;;8324146;28;20201;-81
2023/04/26 07:28:04;;;;;;;4.80;2.77;;;;;13.00;96334.00;;;;8322625;28;20659;-80
2023/04/26 07:32:11;;;;;;;4.68;2.88;;;;;13.50;96341.00;;;;8320828;28;20646;-81
2023/04/26 07:36:19;;;;;;;3.83;2.40;;;;;14.30;96333.00;;;;8313099;28;20275;-78
2023/04/26 07:40:31;;;;;;;4.47;2.60;;;;;14.40;96337.00;;;;8302533;28;20248;-81
2023/04/26 07:44:34;;;;;;;5.40;2.60;;;;;13.90;96340.00;;;;8323523;28;20629;-79
2023/04/26 07:48:37;;;;;;;5.55;2.30;;;;;13.40;96342.00;;;;8324078;28;20270;-81
2023/04/26 07:52:42;;;;;;;6.00;3.10;;;;;13.80;96336.00;;;;8323270;28;20220;-80
2023/04/26 07:56:46;;;;;;;5.00;2.58;;;;;12.90;96344.00;;;;8322728;28;20346;-81
2023/04/26 08:00:49;;;;;;;4.90;2.90;;;;;12.90;96332.00;;;;8323607;28;20197;-83
2023/04/26 08:04:54;;;;;;;6.30;2.72;;;;;13.50;96332.00;;;;8318209;28;20229;-82
2023/04/26 08:09:05;;;;;;;3.60;2.60;;;;;14.50;96333.00;;;;8322409;28;20332;-83
2023/04/26 08:13:13;;;;;;;5.63;3.00;;;;;15.40;96343.00;;;;8319489;28;20732;-83
2023/04/26 08:17:16;;;;;;;4.95;2.58;;;;;16.00;96341.00;;;;8322048;28;20229;-81
2023/04/26 08:21:19;;;;;;;6.35;3.10;;;;;15.20;96334.00;;;;8322650;28;20658;-80
2023/04/26 08:25:23;;;;;;;3.92;2.75;;;;;14.40;96332.00;;;;8322170;28;20665;-85
2023/04/26 08:29:28;;;;;;;2.70;2.30;;;;;14.10;96339.00;;;;8321540;28;20244;-84
2023/04/26 08:33:35;;;;;;;10.88;3.03;;;;;13.80;96337.00;;;;8319453;28;20197;-82
2023/04/26 08:37:40;;;;;;;9.13;3.13;;;;;15.10;96344.00;;;;8322687;28;20322;-84
2023/04/26 08:41:44;;;;;;;9.38;2.85;;;;;15.00;96344.00;;;;8321039;28;20213;-82
2023/04/26 08:45:49;;;;;;;5.85;3.40;;;;;14.00;96336.00;;;;8321471;28;20777;-81
2023/04/26 08:49:58;;;;;;;4.93;2.55;;;;;14.60;96346.00;;;;8322117;28;20229;-82
2023/04/26 08:54:03;;;;;;;5.43;2.90;;;;;14.20;96350.00;;;;8321244;28;20205;-79
2023/04/26 08:58:08;;;;;;;9.98;3.40;;;;;13.30;96344.00;;;;8320742;28;20217;-84
2023/04/26 09:02:17;;;;;;;8.23;3.33;;;;;13.10;96348.00;;;;8321465;28;20217;-81
2023/04/26 09:06:24;;;;;;;4.82;3.05;;;;;13.10;96342.00;;;;8320105;28;20203;-84
2023/04/26 09:10:32;;;;;;;4.63;2.90;;;;;13.30;96345.00;;;;8306673;28;20227;-85
2023/04/26 09:14:39;;;;;;;8.70;2.83;;;;;13.40;96342.00;;;;8319526;28;20209;-82
2023/04/26 09:18:51;;;;;;;7.07;2.97;;;;;14.20;96343.00;;;;8319569;28;20228;-84
2023/04/26 09:23:05;;;;;;;6.85;2.95;;;;;14.50;96343.00;;;;8319602;28;20239;-83
2023/04/26 09:27:08;;;;;;;5.40;2.58;;;;;15.60;96327.00;;;;8314077;28;20203;-83
2023/04/26 09:31:37;;;;;;;6.25;2.65;;;;;15.70;96340.00;;;;8319592;28;20198;-86
2023/04/26 09:35:48;;;;;;;5.30;2.40;;;;;15.20;96347.00;;;;8316455;28;20239;-84
2023/04/26 09:39:53;;;;;;;3.03;2.40;;;;;14.90;96346.00;;;;8318249;28;20268;-84
2023/04/26 09:43:56;;;;;;;5.90;2.88;;;;;15.50;96344.00;;;;8318019;28;20204;-82
2023/04/26 09:48:20;;;;;;;3.45;2.30;;;;;15.50;96348.00;;;;8316603;28;20198;-85
2023/04/26 09:52:27;;;;;;;5.00;2.47;;;;;15.90;96341.00;;;;8317553;28;20221;-83
2023/04/26 09:56:32;;;;;;;4.90;2.50;;;;;14.80;96341.00;;;;8314564;28;20753;-86
2023/04/26 10:00:36;;;;;;;4.18;2.50;;;;;15.10;96345.00;;;;8317903;28;20197;-82
2023/04/26 10:04:39;;;;;;;7.93;2.70;;;;;15.90;96350.00;;;;8319793;28;20871;-84
2023/04/26 10:08:47;;;;;;;6.10;2.50;;;;;15.30;96339.00;;;;8318815;28;20284;-84
2023/04/26 10:12:50;;;;;;;3.35;2.67;;;;;14.40;96346.00;;;;8318588;28;20254;-82
2023/04/26 10:16:54;;;;;;;7.30;2.80;;;;;13.60;96338.00;;;;8315005;28;20741;-85
2023/04/26 10:21:00;;;;;;;4.90;2.50;;;;;14.40;96324.00;;;;8319307;28;20310;-86
2023/04/26 10:25:09;;;;;;;6.60;2.70;;;;;15.40;96327.00;;;;8318102;28;20261;-84
2023/04/26 10:29:12;;;;;;;8.40;2.53;;;;;15.40;96324.00;;;;8319781;28;20256;-82
2023/04/26 10:33:15;;;;;;;5.45;2.35;;;;;15.10;96327.00;;;;8317320;28;20197;-82
2023/04/26 10:37:18;;;;;;;6.03;2.95;;;;;15.10;96331.00;;;;8322732;28;20289;-84
2023/04/26 10:41:38;;;;;;;3.22;2.45;;;;;14.90;96320.00;;;;8325127;28;20201;-82
2023/04/26 10:45:43;;;;;;;4.05;2.45;;;;;15.80;96316.00;;;;8325527;28;20206;-82
2023/04/26 10:49:48;;;;;;;4.38;2.45;;;;;16.40;96306.00;;;;8324253;28;20221;-86
2023/04/26 10:54:03;;;;;;;4.28;2.22;;;;;17.10;96306.00;;;;8323742;28;20209;-84
2023/04/26 10:58:30;;;;;;;5.25;2.47;;;;;17.40;96323.00;;;;8302467;28;20229;-81
2023/04/26 11:02:46;;;;;;;4.55;2.83;;;;;17.30;96326.00;;;;8324664;28;20263;-82
2023/04/26 11:06:54;;;;;;;4.88;2.70;;;;;16.40;96305.00;;;;8319306;28;20524;-80
2023/04/26 11:11:10;;;;;;;5.05;3.03;;;;;15.90;96303.00;;;;8323271;28;20205;-80
2023/04/26 11:15:15;;;;;;;8.00;3.10;;;;;15.60;96305.00;;;;8327271;28;20638;-83
2023/04/26 11:19:21;;;;;;;4.40;3.38;;;;;15.30;96315.00;;;;8307120;28;20295;-84
2023/04/26 11:23:28;;;;;;;5.38;3.53;;;;;14.60;96316.00;;;;8319944;28;20266;-83
2023/04/26 11:27:32;;;;;;;3.45;2.88;;;;;14.40;96302.00;;;;8323193;28;20632;-79
2023/04/26 11:31:37;;;;;;;3.55;2.67;;;;;15.50;96302.00;;;;8320370;28;20621;-82
2023/04/26 11:35:45;;;;;;;7.75;2.60;;;;;16.10;96296.00;;;;8305372;28;20225;-78
2023/04/26 11:39:51;;;;;;;5.75;2.40;;;;;16.70;96314.00;;;;8321071;28;20221;-84
2023/04/26 11:43:59;;;;;;;7.93;2.42;;;;;16.80;96302.00;;;;8322489;28;20194;-82
2023/04/26 11:48:05;;;;;;;6.03;2.60;;;;;17.30;96294.00;;;;8324290;28;20217;-82
2023/04/26 11:52:11;;;;;;;3.15;2.20;;;;;17.40;96299.00;;;;8319410;28;20670;-82
2023/04/26 11:56:20;;;;;;;4.13;2.47;;;;;17.30;96300.00;;;;8323298;28;20672;-81
2023/04/26 12:00:29;;;;;;;3.05;2.50;;;;;17.50;96304.00;;;;8323988;28;20303;-82
2023/04/26 12:04:34;;;;;;;8.25;2.63;;;;;16.70;96302.00;;;;8321154;28;20834;-81
2023/04/26 12:08:37;;;;;;;4.63;2.47;;;;;16.20;96309.00;;;;8319622;28;20651;-82
2023/04/26 12:12:44;;;;;;;2.55;2.35;;;;;16.00;96300.00;;;;8320909;28;20201;-79
2023/04/26 12:16:50;;;;;;;3.13;2.40;;;;;16.10;96305.00;;;;8323279;28;20201;-80
2023/04/26 12:20:59;;;;;;;3.45;2.42;;;;;16.20;96295.00;;;;8304179;28;20225;-81
2023/04/26 12:25:06;;;;;;;7.03;2.42;;;;;16.20;96303.00;;;;8321922;28;20198;-82
2023/04/26 12:29:11;;;;;;;4.88;3.03;;;;;15.90;96300.00;;;;8323161;28;20208;-79
2023/04/26 12:33:14;;;;;;;4.00;2.60;;;;;15.80;96296.00;;;;8319135;28;20202;-79
2023/04/26 12:37:21;;;;;;;5.93;2.55;;;;;15.80;96282.00;;;;8319602;28;20222;-79
2023/04/26 12:41:24;;;;;;;3.05;2.38;;;;;15.80;96282.00;;;;8321985;28;20741;-78
2023/04/26 12:45:31;;;;;;;3.78;2.60;;;;;15.80;96274.00;;;;8320003;28;20251;-80
2023/04/26 12:49:35;;;;;;;7.75;2.85;;;;;15.80;96279.00;;;;8320819;28;20253;-79
2023/04/26 12:53:42;;;;;;;3.58;2.70;;;;;15.50;96270.00;;;;8321697;28;20316;-81
2023/04/26 12:57:47;;;;;;;8.73;2.40;;;;;15.30;96280.00;;;;8317096;28;20370;-80
2023/04/26 13:01:53;;;;;;;6.03;2.78;;;;;15.30;96271.00;;;;8318805;28;20243;-80
2023/04/26 13:05:57;;;;;;;2.58;2.28;;;;;15.50;96264.00;;;;8321473;28;20308;-80
2023/04/26 13:10:03;;;;;;;2.30;2.20;;;;;15.70;96275.00;;;;8304182;28;20635;-81
2023/04/26 13:14:09;;;;;;;3.53;2.33;;;;;16.00;96269.00;;;;8303810;28;20271;-77
2023/04/26 13:18:14;;;;;;;6.45;2.47;;;;;16.50;96272.00;;;;8318767;28;20241;-80
2023/04/26 13:22:18;;;;;;;5.28;2.92;;;;;16.80;96276.00;;;;8321474;28;20205;-80
2023/04/26 13:26:24;;;;;;;4.88;2.67;;;;;16.70;96276.00;;;;8319283;28;20194;-79
2023/04/26 13:30:31;;;;;;;4.15;2.45;;;;;16.30;96262.00;;;;8318373;28;20425;-78
2023/04/26 13:34:35;;;;;;;6.43;2.60;;;;;16.30;96266.00;;;;8320975;28;20576;-78
2023/04/26 13:38:38;;;;;;;5.72;2.60;;;;;16.80;96268.00;;;;8316216;28;20675;-79
2023/04/26 13:42:45;;;;;;;4.90;2.80;;;;;17.10;96270.00;;;;8319884;28;20251;-79
2023/04/26 13:46:49;;;;;;;2.97;2.47;;;;;17.10;96263.00;;;;8318030;28;20275;-79
2023/04/26 13:50:55;;;;;;;5.72;2.65;;;;;17.10;96268.00;;;;8320949;28;21027;-76
2023/04/26 13:54:59;;;;;;;5.00;2.67;;;;;16.90;96263.00;;;;8317489;28;20223;-78
2023/04/26 13:59:05;;;;;;;5.13;2.67;;;;;17.10;96258.00;;;;8313955;28;20225;-79
2023/04/26 14:03:10;;;;;;;5.32;2.70;;;;;17.40;96264.00;;;;8320443;28;20251;-77
2023/04/26 14:07:13;;;;;;;6.40;2.53;;;;;17.10;96259.00;;;;8316404;28;20194;-77
2023/04/26 14:11:18;;;;;;;7.80;2.97;;;;;17.60;96253.00;;;;8317335;28;20197;-78
2023/04/26 14:15:23;;;;;;;4.07;2.40;;;;;18.70;96257.00;;;;8320749;28;20266;-79
2023/04/26 14:19:29;;;;;;;3.00;2.75;;;;;18.70;96250.00;;;;8318664;28;20248;-78
2023/04/26 14:23:42;;;;;;;4.20;2.67;;;;;17.90;96261.00;;;;8319189;28;20240;-78
2023/04/26 14:27:45;;;;;;;3.83;2.70;;;;;17.30;96259.00;;;;8319443;28;20644;-78
2023/04/26 14:31:50;;;;;;;5.40;2.72;;;;;17.00;96256.00;;;;8319123;28;20236;-78
2023/04/26 14:35:53;;;;;;;5.78;2.95;;;;;16.60;96258.00;;;;8317598;28;20559;-78
2023/04/26 14:39:59;;;;;;;5.30;2.42;;;;;17.00;96257.00;;;;8319715;28;20225;-78
2023/04/26 14:44:04;;;;;;;4.00;2.50;;;;;17.70;96263.00;;;;8318981;28;20255;-78
2023/04/26 14:48:09;;;;;;;4.70;2.85;;;;;17.60;96274.00;;;;8320092;28;20213;-78
2023/04/26 14:52:16;;;;;;;2.85;2.38;;;;;17.60;96248.00;;;;8319736;28;20201;-77
2023/04/26 14:56:22;;;;;;;4.65;2.53;;;;;17.80;96264.00;;;;8315629;28;20204;-79
2023/04/26 15:00:25;;;;;;;3.95;2.25;;;;;17.60;96248.00;;;;8319236;28;20221;-77
2023/04/26 15:04:30;;;;;;;4.55;2.80;;;;;17.10;96256.00;;;;8317806;28;20225;-78
2023/04/26 15:08:33;;;;;;;4.65;2.88;;;;;16.60;96253.00;;;;8317312;28;20206;-77
2023/04/26 15:12:36;;;;;;;5.80;2.50;;;;;16.80;96251.00;;;;8317766;28;20205;-78
2023/04/26 15:16:39;;;;;;;2.40;2.20;;;;;17.80;96251.00;;;;8317490;28;20284;-76
2023/04/26 15:20:48;;;;;;;3.95;2.65;;;;;18.50;96244.00;;;;8319755;28;20252;-78
2023/04/26 15:24:51;;;;;;;6.68;3.08;;;;;18.40;96252.00;;;;8325239;28;20655;-77
2023/04/26 15:28:55;;;;;;;3.45;2.80;;;;;18.30;96249.00;;;;8323051;28;20208;-78
2023/04/26 15:33:02;;;;;;;6.20;2.70;;;;;18.50;96240.00;;;;8321465;28;20209;-78
2023/04/26 15:37:06;;;;;;;5.55;2.47;;;;;18.40;96238.00;;;;8315372;28;20235;-77
2023/04/26 15:41:12;;;;;;;5.40;2.83;;;;;18.30;96240.00;;;;8298489;28;20229;-78
2023/04/26 15:45:15;;;;;;;8.95;3.10;;;;;18.10;96264.00;;;;8318009;28;20197;-77
2023/04/26 15:49:18;;;;;;;7.32;2.63;;;;;17.60;96248.00;;;;8319932;28;20201;-75
2023/04/26 15:53:23;;;;;;;4.07;3.13;;;;;17.30;96253.00;;;;8323591;28;20263;-78
2023/04/26 15:57:26;;;;;;;5.15;2.40;;;;;17.70;96248.00;;;;8321829;28;20292;-77
2023/04/26 16:01:29;;;;;;;4.43;2.55;;;;;18.20;96249.00;;;;8322899;28;20682;-77
2023/04/26 16:05:32;;;;;;;7.15;3.17;;;;;18.70;96243.00;;;;8324284;28;20193;-77
2023/04/26 16:09:39;;;;;;;9.82;2.72;;;;;18.80;96241.00;;;;8323822;28;20201;-77
2023/04/26 16:13:43;;;;;;;4.57;2.90;;;;;18.70;96253.00;;;;8323982;28;20228;-77
2023/04/26 16:17:46;;;;;;;4.55;2.60;;;;;18.80;96259.00;;;;8322612;28;20198;-76
2023/04/26 16:21:54;;;;;;;4.43;2.80;;;;;18.60;96254.00;;;;8318478;28;20316;-77
2023/04/26 16:25:59;;;;;;;9.35;2.60;;;;;18.70;96248.00;;;;8322578;28;20224;-77
2023/04/26 16:30:03;;;;;;;6.00;2.70;;;;;18.40;96243.00;;;;8322794;28;20204;-78
2023/04/26 16:34:08;;;;;;;4.88;2.70;;;;;17.60;96253.00;;;;8320522;28;20757;-77
2023/04/26 16:38:17;;;;;;;7.70;3.33;;;;;17.00;96230.00;;;;8322128;28;20271;-77
2023/04/26 16:42:21;;;;;;;10.18;3.45;;;;;16.90;96244.00;;;;8305322;28;20193;-77
2023/04/26 16:46:24;;;;;;;8.05;3.58;;;;;17.10;96254.00;;;;8322566;28;20204;-76
2023/04/26 16:50:28;;;;;;;3.28;2.70;;;;;16.50;96250.00;;;;8322308;28;20198;-76
2023/04/26 16:54:33;;;;;;;5.75;2.60;;;;;15.80;96248.00;;;;8320715;28;20717;-76
2023/04/26 16:58:38;;;;;;;6.70;2.67;;;;;15.30;96249.00;;;;8303255;28;20248;-76
2023/04/26 17:02:41;;;;;;;6.93;2.95;;;;;15.20;96249.00;;;;8320727;28;20276;-76
2023/04/26 17:06:47;;;;;;;5.38;2.88;;;;;15.60;96251.00;;;;8321788;28;20205;-75
2023/04/26 17:10:50;;;;;;;8.38;2.83;;;;;16.10;96252.00;;;;8320396;28;20202;-76
2023/04/26 17:14:56;;;;;;;5.50;3.15;;;;;15.90;96257.00;;;;8319674;28;20194;-76
2023/04/26 17:19:02;;;;;;;7.13;3.00;;;;;15.20;96260.00;;;;8319279;28;20221;-75
2023/04/26 17:23:07;;;;;;;7.03;2.92;;;;;14.80;96262.00;;;;8321157;28;20202;-76
2023/04/26 17:27:10;;;;;;;4.75;2.28;;;;;14.70;96267.00;;;;8321756;28;20288;-76
2023/04/26 17:31:15;;;;;;;5.43;3.10;;;;;14.20;96267.00;;;;8317188;28;20243;-75
2023/04/26 17:35:19;;;;;;;6.85;2.83;;;;;13.70;96257.00;;;;8302257;28;20288;-76
2023/04/26 17:39:22;;;;;;;5.85;2.53;;;;;13.40;96264.00;;;;8318649;28;20232;-76
2023/04/26 17:43:27;;;;;;;5.50;2.67;;;;;13.20;96266.00;;;;8319070;28;20267;-75
2023/04/26 17:47:36;;;;;;;5.03;2.47;;;;;13.00;96269.00;;;;8318717;28;20225;-76
2023/04/26 17:51:39;;;;;;;4.05;2.50;;;;;13.00;96275.00;;;;8320712;28;20650;-75
2023/04/26 17:55:42;;;;;;;3.90;3.10;;;;;12.80;96272.00;;;;8320051;28;20205;-76
2023/04/26 17:59:47;;;;;;;5.03;2.70;;;;;12.60;96272.00;;;;8319599;28;20267;-76
2023/04/26 18:03:54;;;;;;;7.43;3.20;;;;;12.40;96274.00;;;;8317728;28;20228;-75
2023/04/26 18:08:01;;;;;;;11.13;3.85;;;;;12.20;96278.00;;;;8316581;28;20213;-75
2023/04/26 18:12:06;;;;;;;4.07;2.90;;;;;12.00;96284.00;;;;8320542;28;20211;-76
2023/04/26 18:16:11;;;;;;;4.90;2.65;;;;;11.90;96287.00;;;;8319026;28;20256;-75
2023/04/26 18:20:16;;;;;;;2.97;2.38;;;;;11.80;96296.00;;;;8317353;28;20220;-74
2023/04/26 18:24:19;;;;;;;5.72;2.63;;;;;11.70;96302.00;;;;8316054;28;20243;-77
2023/04/26 18:28:24;;;;;;;2.90;2.70;;;;;11.50;96299.00;;;;8320325;28;20198;-76
2023/04/26 18:32:30;;;;;;;3.35;2.60;;;;;11.30;96309.00;;;;8298218;28;20201;-75
2023/04/26 18:36:34;;;;;;;5.03;3.05;;;;;11.10;96302.00;;;;8309500;28;20639;-76
2023/04/26 18:40:43;;;;;;;4.40;2.90;;;;;10.90;96307.00;;;;8309553;28;20353;-75
2023/04/26 18:44:46;;;;;;;3.50;2.83;;;;;10.70;96302.00;;;;8307646;28;20638;-76
2023/04/26 18:48:50;;;;;;;9.38;3.50;;;;;10.60;96306.00;;;;8309717;28;20665;-78
2023/04/26 18:52:54;;;;;;;7.15;3.45;;;;;10.40;96318.00;;;;8313721;28;20203;-75
2023/04/26 18:57:00;;;;;;;5.72;2.95;;;;;10.20;96316.00;;;;8315795;28;20207;-77
2023/04/26 19:01:05;;;;;;;6.07;3.25;;;;;10.00;96325.00;;;;8325009;28;20221;-75
2023/04/26 19:05:10;;;;;;;8.93;3.60;;;;;9.90;96323.00;;;;8307388;28;20226;-75
2023/04/26 19:09:16;;;;;;;16.27;5.20;;;;;9.80;96326.00;;;;8321003;28;20198;-76
2023/04/26 19:13:20;;;;;;;11.65;4.30;;;;;9.70;96331.00;;;;8324072;28;20266;-75
2023/04/26 19:17:24;;;;;;;12.57;4.53;;;;;9.60;96336.00;;;;8324294;28;20249;-76
2023/04/26 19:21:30;;;;;;;14.98;5.38;;;;;9.50;96344.00;;;;8322586;28;20233;-76
2023/04/26 19:25:37;;;;;;;17.95;6.57;;;;;9.30;96341.00;;;;8325203;28;20198;-76
2023/04/26 19:29:45;;;;;;;22.90;7.87;;;;;9.00;96345.00;;;;8308448;28;20198;-75
2023/04/26 19:33:48;;;;;;;12.45;5.32;;;;;8.80;96352.00;;;;8324070;28;20701;-77
2023/04/26 19:37:59;;;;;;;11.68;4.18;;;;;8.60;96345.00;;;;8324979;28;20292;-76
2023/04/26 19:42:05;;;;;;;5.87;3.57;;;;;8.40;96353.00;;;;8315310;28;20717;-76
2023/04/26 19:46:12;;;;;;;4.80;3.27;;;;;8.30;96349.00;;;;8323757;28;20209;-76
2023/04/26 19:50:17;;;;;;;10.43;5.00;;;;;8.20;96344.00;;;;8320325;28;20197;-75
2023/04/26 19:54:20;;;;;;;6.80;3.70;;;;;8.10;96352.00;;;;8322391;28;20696;-76
2023/04/26 19:58:24;;;;;;;5.80;2.90;;;;;7.90;96349.00;;;;8324194;28;20190;-76
2023/04/26 20:02:32;;;;;;;6.90;3.47;;;;;7.80;96356.00;;;;8319090;28;20240;-76
2023/04/26 20:06:35;;;;;;;8.00;3.40;;;;;7.80;96353.00;;;;8324420;28;20968;-75
2023/04/26 20:10:40;;;;;;;5.93;2.70;;;;;7.50;96347.00;;;;8322862;28;20205;-75
2023/04/26 20:14:45;;;;;;;4.77;2.73;;;;;7.30;96356.00;;;;8322656;28;20236;-75
2023/04/26 20:18:51;;;;;;;7.00;3.00;;;;;7.10;96358.00;;;;8322094;28;20205;-75
2023/04/26 20:22:55;;;;;;;5.43;3.30;;;;;6.80;96359.00;;;;8305499;28;20710;-76
2023/04/26 20:26:58;;;;;;;5.00;2.83;;;;;6.60;96356.00;;;;8323075;28;20251;-75
2023/04/26 20:31:02;;;;;;;8.40;3.03;;;;;6.50;96362.00;;;;8320815;28;20202;-77